Time;durP1;ratioP1;P1;durP2;ratioP2;P2;SDS_P1;SDS_P2;PMS_P1;PMS_P2;Temp;Humidity;BMP_temperature;BMP_pressure;BME280_temperature;BME280_humidity;BME280_pressure;Samples;Min_cycle;Max_cycle;Signal;HPM_P1;HPM_P2
2021/12/18 00:01:05;;;;;;;;;;;7.60;94.00;;;;;;5038376;28;19999;-52
2021/12/18 00:03:33;;;;;;;;;;;7.60;94.00;;;;;;5034410;28;19925;-55
2021/12/18 00:05:59;;;;;;;;;;;7.50;93.90;;;;;;5052684;28;19908;-52
2021/12/18 00:08:26;;;;;;;;;;;7.50;93.90;;;;;;5025772;28;19945;-50
2021/12/18 00:10:55;;;;;;;;;;;7.50;94.00;;;;;;5036918;28;19909;-50
2021/12/18 00:13:22;;;;;;;;;;;7.60;94.10;;;;;;5048557;28;19912;-56
2021/12/18 00:15:49;;;;;;;;;;;7.60;94.00;;;;;;5034995;28;19948;-51
2021/12/18 00:18:16;;;;;;;;;;;7.60;94.00;;;;;;5043061;28;19913;-52
2021/12/18 00:20:43;;;;;;;;;;;7.60;94.00;;;;;;5051507;28;19920;-49
2021/12/18 00:23:09;;;;;;;;;;;7.60;94.00;;;;;;5045399;28;19967;-51
2021/12/18 00:25:36;;;;;;;;;;;7.70;94.00;;;;;;5050671;28;19924;-51
2021/12/18 00:28:01;;;;;;;;;;;7.60;94.00;;;;;;5045808;28;19955;-55
2021/12/18 00:30:28;;;;;;;;;;;7.70;94.00;;;;;;5046954;28;19966;-54
2021/12/18 00:32:55;;;;;;;;;;;7.70;94.00;;;;;;5032441;28;19920;-51
2021/12/18 00:35:22;;;;;;;;;;;7.70;94.00;;;;;;5023109;28;19913;-55
2021/12/18 00:37:49;;;;;;;;;;;7.80;94.00;;;;;;5036400;28;19913;-54
2021/12/18 00:40:23;;;;;;;;;;;7.80;93.90;;;;;;5043364;28;19912;-54
2021/12/18 00:42:58;;;;;;;;;;;7.80;94.00;;;;;;5032243;28;19909;-55
2021/12/18 00:45:25;;;;;;;;;;;7.80;93.90;;;;;;5032614;28;20625;-51
2021/12/18 00:47:52;;;;;;;;;;;7.80;93.90;;;;;;5049023;28;19985;-50
2021/12/18 00:50:19;;;;;;;;;;;7.80;93.90;;;;;;5033081;28;19932;-54
2021/12/18 00:52:48;;;;;;;;;;;7.80;93.90;;;;;;5031968;28;19936;-50
2021/12/18 00:55:15;;;;;;;;;;;7.80;93.90;;;;;;5036249;28;19919;-59
2021/12/18 00:57:44;;;;;;;;;;;7.80;93.90;;;;;;5029652;28;20371;-58
2021/12/18 01:00:13;;;;;;;;;;;7.90;93.90;;;;;;5042684;28;20359;-56
2021/12/18 01:02:43;;;;;;;;;;;7.90;93.90;;;;;;5015193;28;19905;-53
2021/12/18 01:05:10;;;;;;;;;;;7.90;93.90;;;;;;5051196;28;19905;-58
2021/12/18 01:07:37;;;;;;;;;;;7.90;93.90;;;;;;5050434;28;19927;-56
2021/12/18 01:10:21;;;;;;;;;;;7.90;93.90;;;;;;5031569;28;19913;-57
2021/12/18 01:12:50;;;;;;;;;;;8.00;93.90;;;;;;5033708;28;20032;-54
2021/12/18 01:15:23;;;;;;;;;;;8.00;93.80;;;;;;5033713;28;19913;-57
2021/12/18 01:23:22;;;;;;;;;;;8.00;93.80;;;;;;5046784;28;19990;-60
2021/12/18 01:25:52;;;;;;;;;;;8.00;93.80;;;;;;5050468;28;19963;-59
2021/12/18 01:28:21;;;;;;;;;;;8.00;93.80;;;;;;5046049;28;19915;-58
2021/12/18 01:30:48;;;;;;;;;;;8.00;93.70;;;;;;5041664;28;19920;-57
2021/12/18 01:33:15;;;;;;;;;;;8.00;93.80;;;;;;5041134;28;19909;-55
2021/12/18 01:35:45;;;;;;;;;;;8.00;93.80;;;;;;5031251;28;20342;-56
2021/12/18 01:38:12;;;;;;;;;;;8.00;93.80;;;;;;5036049;28;19917;-57
2021/12/18 01:40:39;;;;;;;;;;;7.90;93.70;;;;;;5049695;28;20354;-55
2021/12/18 01:51:18;;;;;;;;;;;8.00;93.90;;;;;;5034908;28;19943;-52
2021/12/18 01:53:52;;;;;;;;;;;7.90;93.80;;;;;;5025749;28;19966;-54
2021/12/18 01:56:20;;;;;;;;;;;8.00;93.90;;;;;;5047290;28;19908;-54
2021/12/18 01:58:46;;;;;;;;;;;8.00;93.90;;;;;;5041591;28;19916;-50
2021/12/18 02:01:14;;;;;;;;;;;8.00;93.90;;;;;;5050513;28;19905;-53
2021/12/18 02:03:39;;;;;;;;;;;8.00;94.00;;;;;;5043375;28;19912;-54
2021/12/18 02:06:06;;;;;;;;;;;8.00;94.00;;;;;;5039085;28;19928;-52
2021/12/18 02:08:35;;;;;;;;;;;8.10;94.00;;;;;;5038978;28;20326;-50
2021/12/18 02:11:12;;;;;;;;;;;8.00;94.00;;;;;;5050173;28;19923;-51
2021/12/18 02:21:58;;;;;;;;;;;7.90;93.90;;;;;;5038067;28;20406;-47
2021/12/18 02:24:27;;;;;;;;;;;7.90;93.90;;;;;;5033044;28;19917;-50
2021/12/18 02:26:55;;;;;;;;;;;7.90;93.90;;;;;;5040932;28;19913;-48
2021/12/18 02:29:21;;;;;;;;;;;7.90;93.90;;;;;;5038740;28;19936;-52
2021/12/18 02:31:48;;;;;;;;;;;7.90;94.00;;;;;;5022532;28;19913;-52
2021/12/18 02:34:25;;;;;;;;;;;7.90;93.90;;;;;;5019079;28;20443;-49
2021/12/18 02:36:53;;;;;;;;;;;7.90;94.00;;;;;;5039243;28;19940;-52
2021/12/18 02:39:39;;;;;;;;;;;7.90;94.00;;;;;;5040953;28;19936;-54
2021/12/18 02:44:39;;;;;;;;;;;7.90;94.10;;;;;;5033485;28;19913;-52
2021/12/18 02:47:06;;;;;;;;;;;7.90;94.10;;;;;;5023377;28;19912;-56
2021/12/18 02:49:34;;;;;;;;;;;8.00;94.10;;;;;;5024065;28;20225;-57
2021/12/18 02:51:59;;;;;;;;;;;7.90;94.00;;;;;;5044422;28;19912;-55
2021/12/18 02:54:26;;;;;;;;;;;7.90;94.00;;;;;;5049561;28;20347;-55
2021/12/18 02:56:53;;;;;;;;;;;8.00;94.00;;;;;;5037612;28;19917;-55
2021/12/18 02:59:21;;;;;;;;;;;8.00;94.00;;;;;;5013797;28;20337;-53
2021/12/18 03:01:48;;;;;;;;;;;8.00;94.00;;;;;;5029949;28;20247;-56
2021/12/18 03:04:26;;;;;;;;;;;8.00;94.10;;;;;;5047497;28;20146;-54
2021/12/18 03:07:00;;;;;;;;;;;8.00;94.10;;;;;;5049464;28;19920;-49
2021/12/18 03:21:52;;;;;;;;;;;8.00;94.10;;;;;;5034372;28;19924;-49
2021/12/18 03:25:58;;;;;;;;;;;8.00;94.10;;;;;;5032747;28;20422;-50
2021/12/18 03:28:25;;;;;;;;;;;8.00;94.10;;;;;;5041793;28;19923;-53
2021/12/18 03:30:52;;;;;;;;;;;8.00;94.00;;;;;;5048736;28;20011;-54
2021/12/18 03:33:19;;;;;;;;;;;8.00;94.10;;;;;;5047380;28;19913;-49
2021/12/18 03:35:45;;;;;;;;;;;8.00;94.10;;;;;;5049479;28;19923;-51
2021/12/18 03:38:12;;;;;;;;;;;8.00;94.10;;;;;;5040822;28;19935;-56
2021/12/18 03:40:38;;;;;;;;;;;7.90;94.00;;;;;;5049236;28;20240;-53
2021/12/18 03:43:05;;;;;;;;;;;8.00;94.10;;;;;;5044981;28;19909;-53
2021/12/18 03:45:32;;;;;;;;;;;8.00;94.10;;;;;;5048753;28;19913;-56
2021/12/18 03:47:59;;;;;;;;;;;8.00;94.10;;;;;;5027860;28;19936;-53
2021/12/18 03:50:26;;;;;;;;;;;8.00;94.10;;;;;;5029459;28;19944;-50
2021/12/18 03:52:52;;;;;;;;;;;8.00;94.10;;;;;;5048798;28;19912;-52
2021/12/18 03:55:19;;;;;;;;;;;8.00;94.10;;;;;;5049152;28;19951;-55
2021/12/18 03:57:46;;;;;;;;;;;8.10;94.20;;;;;;5033761;28;20344;-55
2021/12/18 04:00:16;;;;;;;;;;;8.10;94.20;;;;;;5028394;28;19986;-50
2021/12/18 04:02:43;;;;;;;;;;;8.10;94.20;;;;;;5032621;28;19991;-53
2021/12/18 04:05:10;;;;;;;;;;;8.10;94.10;;;;;;5032796;28;19915;-52
2021/12/18 04:07:42;;;;;;;;;;;8.10;94.20;;;;;;5046919;28;20322;-53
2021/12/18 04:10:11;;;;;;;;;;;8.20;94.20;;;;;;5052498;28;19917;-50
2021/12/18 04:12:38;;;;;;;;;;;8.20;94.20;;;;;;5051575;28;19904;-51
2021/12/18 04:15:05;;;;;;;;;;;8.20;94.30;;;;;;5032658;28;20011;-55
2021/12/18 04:17:32;;;;;;;;;;;8.20;94.30;;;;;;5015349;28;19966;-54
2021/12/18 04:19:58;;;;;;;;;;;8.20;94.30;;;;;;5045851;28;19908;-52
2021/12/18 04:22:25;;;;;;;;;;;8.20;94.30;;;;;;5019223;28;19917;-53
2021/12/18 04:24:52;;;;;;;;;;;8.20;94.30;;;;;;5045106;28;19921;-51
2021/12/18 04:27:19;;;;;;;;;;;8.20;94.30;;;;;;5071240;28;19919;-51
2021/12/18 04:29:46;;;;;;;;;;;8.20;94.30;;;;;;5070696;28;20015;-53
2021/12/18 04:32:13;;;;;;;;;;;8.20;94.30;;;;;;5072023;28;19915;-54
2021/12/18 04:34:40;;;;;;;;;;;8.20;94.30;;;;;;5066153;28;19912;-52
2021/12/18 04:37:06;;;;;;;;;;;8.20;94.30;;;;;;5061213;28;20011;-53
2021/12/18 04:39:35;;;;;;;;;;;8.20;94.30;;;;;;5071793;28;20368;-52
2021/12/18 04:42:02;;;;;;;;;;;8.20;94.30;;;;;;5055587;28;19920;-50
2021/12/18 04:44:29;;;;;;;;;;;8.20;94.30;;;;;;5066323;28;19908;-49
2021/12/18 04:46:54;;;;;;;;;;;8.20;94.30;;;;;;5071437;28;19990;-49
2021/12/18 04:49:20;;;;;;;;;;;8.20;94.30;;;;;;5055593;28;20025;-51
2021/12/18 04:51:47;;;;;;;;;;;8.20;94.30;;;;;;5062026;28;19919;-51
2021/12/18 04:54:14;;;;;;;;;;;8.20;94.30;;;;;;5053812;28;20054;-47
2021/12/18 04:56:41;;;;;;;;;;;8.20;94.30;;;;;;5056972;28;19923;-52
2021/12/18 04:59:08;;;;;;;;;;;8.20;94.30;;;;;;5060111;28;20338;-52
2021/12/18 05:01:38;;;;;;;;;;;8.20;94.30;;;;;;5065966;28;20361;-48
2021/12/18 05:04:10;;;;;;;;;;;8.10;94.30;;;;;;5051672;28;20353;-49
2021/12/18 05:06:40;;;;;;;;;;;8.20;94.30;;;;;;5067962;28;20254;-47
2021/12/18 05:09:07;;;;;;;;;;;8.20;94.30;;;;;;5051592;28;20405;-51
2021/12/18 05:11:34;;;;;;;;;;;8.10;94.30;;;;;;5071363;28;19912;-50
2021/12/18 05:13:59;;;;;;;;;;;8.20;94.30;;;;;;5058589;28;19920;-48
2021/12/18 05:16:27;;;;;;;;;;;8.20;94.30;;;;;;5057864;28;19913;-50
2021/12/18 05:18:52;;;;;;;;;;;8.20;94.40;;;;;;5066139;28;19995;-47
2021/12/18 05:21:18;;;;;;;;;;;8.20;94.40;;;;;;5056187;28;20318;-50
2021/12/18 05:23:43;;;;;;;;;;;8.20;94.40;;;;;;5062644;28;20393;-47
2021/12/18 05:26:10;;;;;;;;;;;8.20;94.40;;;;;;5069277;28;19940;-49
2021/12/18 05:28:37;;;;;;;;;;;8.20;94.40;;;;;;5061900;28;19917;-47
2021/12/18 05:31:04;;;;;;;;;;;8.20;94.40;;;;;;5070275;28;20588;-50
2021/12/18 05:33:30;;;;;;;;;;;8.20;94.40;;;;;;5062732;28;19917;-53
2021/12/18 05:35:57;;;;;;;;;;;8.20;94.40;;;;;;5053938;28;19975;-53
2021/12/18 05:38:24;;;;;;;;;;;8.20;94.40;;;;;;5067153;28;20011;-53
2021/12/18 05:40:51;;;;;;;;;;;8.20;94.40;;;;;;5051063;28;19952;-51
2021/12/18 05:43:16;;;;;;;;;;;8.20;94.40;;;;;;5051366;28;19908;-52
2021/12/18 05:45:43;;;;;;;;;;;8.20;94.40;;;;;;5069078;28;19916;-51
2021/12/18 05:48:10;;;;;;;;;;;8.20;94.40;;;;;;5054909;28;19908;-50
2021/12/18 05:50:37;;;;;;;;;;;8.20;94.40;;;;;;5070700;28;19908;-50
2021/12/18 05:53:04;;;;;;;;;;;8.20;94.40;;;;;;5066691;28;19908;-50
2021/12/18 05:55:31;;;;;;;;;;;8.20;94.50;;;;;;5070068;28;19920;-52
2021/12/18 05:57:57;;;;;;;;;;;8.20;94.50;;;;;;5066660;28;19909;-50
2021/12/18 06:00:24;;;;;;;;;;;8.20;94.50;;;;;;5064719;28;19919;-49
2021/12/18 06:02:51;;;;;;;;;;;8.20;94.40;;;;;;5068286;28;20261;-51
2021/12/18 06:05:17;;;;;;;;;;;8.10;94.40;;;;;;5054492;28;19999;-51
2021/12/18 06:07:58;;;;;;;;;;;8.10;94.40;;;;;;5068532;28;20273;-51
2021/12/18 06:10:28;;;;;;;;;;;8.10;94.40;;;;;;5068468;28;19908;-52
2021/12/18 06:12:57;;;;;;;;;;;8.10;94.40;;;;;;5064381;28;19908;-49
2021/12/18 06:15:24;;;;;;;;;;;8.10;94.40;;;;;;5054087;28;19999;-48
2021/12/18 06:17:53;;;;;;;;;;;8.10;94.40;;;;;;5057753;28;19912;-47
2021/12/18 06:20:18;;;;;;;;;;;8.10;94.30;;;;;;5063032;28;19969;-49
2021/12/18 06:22:48;;;;;;;;;;;8.10;94.30;;;;;;5059932;28;20014;-49
2021/12/18 06:25:15;;;;;;;;;;;8.00;94.30;;;;;;5055537;28;19921;-48
2021/12/18 06:27:42;;;;;;;;;;;8.00;94.20;;;;;;5062558;28;19951;-48
2021/12/18 06:30:19;;;;;;;;;;;7.90;94.20;;;;;;5060082;28;19948;-49
2021/12/18 06:32:45;;;;;;;;;;;7.90;94.20;;;;;;5058737;28;19923;-51
2021/12/18 06:35:12;;;;;;;;;;;7.90;94.20;;;;;;5061081;28;19966;-50
2021/12/18 06:37:39;;;;;;;;;;;7.90;94.10;;;;;;5058352;28;19916;-49
2021/12/18 06:40:05;;;;;;;;;;;7.90;94.10;;;;;;5062160;28;19986;-48
2021/12/18 06:42:31;;;;;;;;;;;7.90;94.10;;;;;;5060122;28;19912;-49
2021/12/18 06:44:58;;;;;;;;;;;7.90;94.20;;;;;;5056044;28;20377;-50
2021/12/18 06:47:25;;;;;;;;;;;7.90;94.10;;;;;;5056599;28;20113;-52
2021/12/18 06:49:50;;;;;;;;;;;7.90;94.10;;;;;;5061195;28;20249;-49
2021/12/18 06:52:16;;;;;;;;;;;7.90;94.20;;;;;;5058327;28;19919;-47
2021/12/18 06:54:46;;;;;;;;;;;7.90;94.10;;;;;;5067951;28;20295;-50
2021/12/18 06:57:13;;;;;;;;;;;8.00;94.10;;;;;;5065958;28;20289;-51
2021/12/18 06:59:40;;;;;;;;;;;7.90;94.10;;;;;;5054179;28;19919;-52
2021/12/18 07:02:07;;;;;;;;;;;8.00;94.10;;;;;;5063616;28;19904;-49
2021/12/18 07:04:37;;;;;;;;;;;8.00;94.10;;;;;;5068765;28;19959;-51
2021/12/18 07:07:03;;;;;;;;;;;8.00;94.10;;;;;;5055367;28;20346;-51
2021/12/18 07:09:30;;;;;;;;;;;8.00;94.10;;;;;;5066142;28;19912;-51
2021/12/18 07:11:56;;;;;;;;;;;8.00;94.10;;;;;;5061544;28;19908;-51
2021/12/18 07:14:23;;;;;;;;;;;8.00;94.10;;;;;;5053534;28;19959;-49
2021/12/18 07:16:50;;;;;;;;;;;8.00;94.10;;;;;;5054706;28;19909;-53
2021/12/18 07:19:16;;;;;;;;;;;8.00;94.00;;;;;;5065469;28;20321;-51
2021/12/18 07:21:42;;;;;;;;;;;8.00;94.00;;;;;;5057666;28;19935;-52
2021/12/18 07:24:08;;;;;;;;;;;8.00;94.00;;;;;;5055731;28;20333;-46
2021/12/18 07:26:35;;;;;;;;;;;7.90;94.00;;;;;;5029999;28;19921;-49
2021/12/18 07:29:01;;;;;;;;;;;7.90;93.90;;;;;;5012462;28;19917;-50
2021/12/18 07:31:27;;;;;;;;;;;7.90;93.90;;;;;;5033366;28;19966;-47
2021/12/18 07:33:54;;;;;;;;;;;7.80;93.70;;;;;;5041715;28;19947;-47
2021/12/18 07:36:21;;;;;;;;;;;7.80;93.70;;;;;;5049540;28;20000;-50
2021/12/18 07:38:48;;;;;;;;;;;7.70;93.60;;;;;;5047383;28;19920;-47
2021/12/18 07:41:13;;;;;;;;;;;7.70;93.70;;;;;;5043805;28;20302;-49
2021/12/18 07:43:40;;;;;;;;;;;7.80;93.70;;;;;;5047229;28;20011;-48
2021/12/18 07:46:07;;;;;;;;;;;7.80;93.60;;;;;;5020548;28;20248;-51
2021/12/18 07:48:33;;;;;;;;;;;7.80;93.60;;;;;;5033109;28;19909;-49
2021/12/18 07:50:59;;;;;;;;;;;7.80;93.70;;;;;;5044780;28;20023;-48
2021/12/18 07:53:25;;;;;;;;;;;7.90;93.70;;;;;;5015770;28;20008;-50
2021/12/18 07:55:52;;;;;;;;;;;7.90;93.70;;;;;;5033282;28;19924;-51
2021/12/18 07:58:18;;;;;;;;;;;7.90;93.80;;;;;;5039366;28;19909;-53
2021/12/18 08:00:47;;;;;;;;;;;7.90;93.70;;;;;;5023362;28;19959;-51
2021/12/18 08:03:12;;;;;;;;;;;7.90;93.80;;;;;;5028767;28;19976;-53
2021/12/18 08:05:38;;;;;;;;;;;7.90;93.80;;;;;;5033051;28;20022;-53
2021/12/18 08:08:05;;;;;;;;;;;7.90;93.80;;;;;;5034388;28;20254;-52
2021/12/18 08:10:31;;;;;;;;;;;8.00;93.90;;;;;;5035298;28;20308;-53
2021/12/18 08:12:58;;;;;;;;;;;8.00;93.90;;;;;;5048368;28;20007;-52
2021/12/18 08:15:25;;;;;;;;;;;8.00;93.90;;;;;;5033364;28;20024;-50
2021/12/18 08:17:52;;;;;;;;;;;8.10;93.90;;;;;;5049049;28;19917;-53
2021/12/18 08:20:17;;;;;;;;;;;8.10;93.90;;;;;;5044909;28;19959;-52
2021/12/18 08:22:43;;;;;;;;;;;8.10;93.90;;;;;;5026503;28;19959;-51
2021/12/18 08:25:10;;;;;;;;;;;8.10;93.90;;;;;;5041607;28;19923;-49
2021/12/18 08:27:37;;;;;;;;;;;8.10;93.90;;;;;;5060371;28;20045;-51
2021/12/18 08:30:04;;;;;;;;;;;8.10;93.90;;;;;;5057143;28;19920;-52
2021/12/18 08:32:31;;;;;;;;;;;8.10;93.90;;;;;;5058553;28;19958;-51
2021/12/18 08:34:58;;;;;;;;;;;8.20;93.80;;;;;;5062109;28;19913;-50
2021/12/18 08:37:24;;;;;;;;;;;8.20;93.80;;;;;;5068671;28;20370;-51
2021/12/18 08:39:51;;;;;;;;;;;8.20;93.80;;;;;;5067570;28;19923;-52
2021/12/18 08:42:17;;;;;;;;;;;8.20;93.80;;;;;;5051768;28;19920;-51
2021/12/18 08:44:46;;;;;;;;;;;8.20;93.80;;;;;;5059322;28;19913;-52
2021/12/18 08:47:16;;;;;;;;;;;8.20;93.70;;;;;;5053701;28;19926;-51
2021/12/18 08:49:42;;;;;;;;;;;8.20;93.70;;;;;;5062687;28;19904;-50
2021/12/18 08:52:09;;;;;;;;;;;8.20;93.70;;;;;;5059130;28;19930;-48
2021/12/18 08:54:36;;;;;;;;;;;8.20;93.60;;;;;;5059872;28;19912;-49
2021/12/18 08:57:03;;;;;;;;;;;8.20;93.50;;;;;;5061850;28;19965;-47
2021/12/18 08:59:29;;;;;;;;;;;8.20;93.50;;;;;;5060985;28;20377;-49
2021/12/18 09:01:56;;;;;;;;;;;8.20;93.30;;;;;;5062498;28;19935;-49
2021/12/18 09:04:23;;;;;;;;;;;8.30;93.30;;;;;;5070755;28;20320;-51
2021/12/18 09:06:50;;;;;;;;;;;8.30;93.20;;;;;;5071441;28;19928;-47
2021/12/18 09:09:17;;;;;;;;;;;8.30;93.10;;;;;;5069998;28;19920;-47
2021/12/18 09:11:44;;;;;;;;;;;8.40;93.00;;;;;;5067672;28;19963;-50
2021/12/18 09:14:11;;;;;;;;;;;8.30;92.70;;;;;;5055836;28;19991;-49
2021/12/18 09:16:36;;;;;;;;;;;8.40;92.50;;;;;;5065717;28;20341;-44
2021/12/18 09:19:03;;;;;;;;;;;8.40;92.40;;;;;;5067180;28;19959;-46
2021/12/18 09:21:30;;;;;;;;;;;8.40;92.20;;;;;;5058828;28;19956;-46
2021/12/18 09:23:56;;;;;;;;;;;8.50;92.20;;;;;;5064972;28;19912;-44
2021/12/18 09:26:22;;;;;;;;;;;8.40;92.10;;;;;;5070542;28;19995;-46
2021/12/18 09:28:49;;;;;;;;;;;8.50;92.10;;;;;;5065295;28;19913;-44
2021/12/18 09:31:16;;;;;;;;;;;8.50;92.10;;;;;;5061189;28;20234;-43
2021/12/18 09:33:43;;;;;;;;;;;8.50;91.90;;;;;;5051372;28;19905;-45
2021/12/18 09:36:10;;;;;;;;;;;8.50;91.80;;;;;;5050803;28;19917;-49
2021/12/18 09:38:37;;;;;;;;;;;8.60;91.60;;;;;;5058757;28;19936;-45
2021/12/18 09:41:04;;;;;;;;;;;8.60;91.50;;;;;;5070237;28;20345;-46
2021/12/18 09:43:31;;;;;;;;;;;8.70;91.40;;;;;;5064057;28;20360;-45
2021/12/18 09:46:02;;;;;;;;;;;8.70;91.40;;;;;;5052647;28;19916;-45
2021/12/18 09:48:33;;;;;;;;;;;8.70;91.30;;;;;;5058104;28;19909;-46
2021/12/18 09:51:01;;;;;;;;;;;8.80;91.20;;;;;;5069640;28;20310;-44
2021/12/18 09:53:28;;;;;;;;;;;8.80;91.30;;;;;;5067987;28;19904;-43
2021/12/18 09:55:55;;;;;;;;;;;8.90;91.20;;;;;;5069792;28;19951;-45
2021/12/18 09:58:22;;;;;;;;;;;8.90;91.30;;;;;;5068252;28;19905;-44
2021/12/18 10:00:51;;;;;;;;;;;8.90;91.20;;;;;;5056873;28;19909;-46
2021/12/18 10:03:18;;;;;;;;;;;8.90;91.10;;;;;;5069872;28;19961;-44
2021/12/18 10:05:43;;;;;;;;;;;8.90;90.90;;;;;;5069158;28;19916;-44
2021/12/18 10:08:21;;;;;;;;;;;8.90;90.80;;;;;;5064381;28;19912;-43
2021/12/18 10:11:05;;;;;;;;;;;9.00;90.80;;;;;;5036899;28;19933;-45
2021/12/18 10:13:52;;;;;;;;;;;8.90;90.40;;;;;;5060211;28;20001;-47
2021/12/18 10:16:20;;;;;;;;;;;8.80;90.30;;;;;;5061030;28;19914;-48
2021/12/18 10:18:47;;;;;;;;;;;8.80;90.40;;;;;;5061768;28;19928;-46
2021/12/18 10:21:17;;;;;;;;;;;8.80;90.50;;;;;;5069977;28;19919;-45
2021/12/18 10:23:44;;;;;;;;;;;8.80;90.50;;;;;;5064652;28;20003;-49
2021/12/18 10:26:30;;;;;;;;;;;8.80;90.60;;;;;;5050585;28;19936;-46
2021/12/18 10:28:58;;;;;;;;;;;8.80;90.60;;;;;;5048994;28;20028;-45
2021/12/18 10:31:42;;;;;;;;;;;8.90;90.40;;;;;;5020431;28;20262;-45
2021/12/18 10:34:22;;;;;;;;;;;8.90;90.40;;;;;;5025008;28;19913;-47
2021/12/18 10:37:06;;;;;;;;;;;8.90;90.40;;;;;;5041031;28;19967;-45
2021/12/18 10:39:33;;;;;;;;;;;8.90;90.30;;;;;;5032226;28;20250;-42
2021/12/18 10:42:14;;;;;;;;;;;9.00;90.20;;;;;;5031236;28;19992;-42
2021/12/18 10:45:01;;;;;;;;;;;9.00;90.20;;;;;;5049206;28;19908;-47
2021/12/18 10:47:49;;;;;;;;;;;9.00;90.20;;;;;;5034490;28;19920;-43
2021/12/18 10:50:17;;;;;;;;;;;9.00;90.20;;;;;;5048687;28;19923;-43
2021/12/18 10:52:44;;;;;;;;;;;9.00;90.10;;;;;;5048008;28;19916;-44
2021/12/18 10:55:10;;;;;;;;;;;9.10;90.20;;;;;;5030849;28;19967;-44
2021/12/18 10:57:38;;;;;;;;;;;9.10;90.30;;;;;;5033432;28;19913;-46
2021/12/18 11:00:05;;;;;;;;;;;9.20;90.30;;;;;;5041044;28;19924;-45
2021/12/18 11:02:40;;;;;;;;;;;9.10;90.40;;;;;;5030437;28;20338;-44
2021/12/18 11:05:14;;;;;;;;;;;9.10;90.40;;;;;;5032357;28;19912;-48
2021/12/18 11:07:43;;;;;;;;;;;9.10;90.40;;;;;;5045519;28;19983;-43
2021/12/18 11:13:41;;;;;;;;;;;9.10;90.50;;;;;;4980455;28;20009;-42
2021/12/18 11:16:06;;;;;;;;;;;9.10;90.60;;;;;;4992012;28;19917;-50
2021/12/18 11:18:33;;;;;;;;;;;9.10;90.60;;;;;;5020567;28;19915;-43
2021/12/18 11:21:00;;;;;;;;;;;9.10;90.60;;;;;;5027121;28;19909;-45
2021/12/18 11:23:36;;;;;;;;;;;9.10;90.60;;;;;;5052008;28;19952;-44
2021/12/18 11:26:03;;;;;;;;;;;9.20;90.70;;;;;;5070540;28;19916;-45
2021/12/18 11:28:32;;;;;;;;;;;9.20;90.80;;;;;;5069844;28;19912;-45
2021/12/18 11:30:59;;;;;;;;;;;9.20;90.80;;;;;;5065856;28;20214;-43
2021/12/18 11:33:26;;;;;;;;;;;9.20;90.80;;;;;;5066824;28;19921;-49
2021/12/18 11:35:53;;;;;;;;;;;9.20;90.60;;;;;;5070358;28;19919;-50
2021/12/18 11:38:21;;;;;;;;;;;9.20;90.50;;;;;;5091660;28;19920;-47
2021/12/18 11:40:49;;;;;;;;;;;9.20;90.60;;;;;;5091943;28;20345;-43
2021/12/18 11:43:35;;;;;;;;;;;9.30;90.70;;;;;;5090815;28;19916;-49
2021/12/18 11:46:22;;;;;;;;;;;9.20;90.60;;;;;;5081433;28;19908;-46
2021/12/18 11:49:09;;;;;;;;;;;9.20;90.80;;;;;;5090024;28;20273;-45
2021/12/18 11:51:36;;;;;;;;;;;9.20;90.80;;;;;;5092074;28;19904;-44
2021/12/18 11:54:05;;;;;;;;;;;9.20;90.80;;;;;;5079575;28;19983;-44
2021/12/18 11:56:48;;;;;;;;;;;9.20;90.80;;;;;;5076453;28;19908;-46
2021/12/18 11:59:36;;;;;;;;;;;9.20;90.80;;;;;;5081681;28;19908;-44
2021/12/18 12:02:02;;;;;;;;;;;9.20;90.80;;;;;;5083499;28;19908;-44
2021/12/18 12:04:49;;;;;;;;;;;9.10;90.90;;;;;;5091803;28;20249;-48
2021/12/18 12:07:21;;;;;;;;;;;9.10;91.00;;;;;;5071112;28;19937;-44
2021/12/18 12:10:06;;;;;;;;;;;9.20;90.80;;;;;;5089194;28;19908;-45
2021/12/18 12:12:50;;;;;;;;;;;9.20;90.80;;;;;;5065016;28;19983;-47
2021/12/18 12:15:17;;;;;;;;;;;9.20;90.80;;;;;;5086421;28;20328;-44
2021/12/18 12:18:10;;;;;;;;;;;9.20;90.50;;;;;;5072129;28;19915;-43
2021/12/18 12:20:46;;;;;;;;;;;9.20;90.70;;;;;;5068513;28;19914;-42
2021/12/18 12:23:14;;;;;;;;;;;9.20;90.60;;;;;;5081699;28;19970;-43
2021/12/18 12:25:44;;;;;;;;;;;9.30;90.40;;;;;;5087259;28;19916;-47
2021/12/18 12:28:16;;;;;;;;;;;9.20;90.50;;;;;;5084936;28;19923;-45
2021/12/18 12:31:00;;;;;;;;;;;9.20;90.50;;;;;;5062347;28;19916;-45
2021/12/18 12:33:32;;;;;;;;;;;9.10;90.60;;;;;;5071534;28;19982;-44
2021/12/18 12:36:03;;;;;;;;;;;9.10;90.70;;;;;;5074549;28;20234;-48
2021/12/18 12:38:38;;;;;;;;;;;9.00;90.70;;;;;;5088874;28;20427;-45
2021/12/18 12:41:22;;;;;;;;;;;9.10;90.70;;;;;;5073296;28;19903;-46
2021/12/18 12:43:50;;;;;;;;;;;9.00;90.70;;;;;;5080313;28;19919;-44
2021/12/18 12:46:16;;;;;;;;;;;9.00;90.80;;;;;;5070956;28;19962;-46
2021/12/18 12:49:02;;;;;;;;;;;9.00;90.80;;;;;;5082171;28;20280;-43
2021/12/18 12:51:48;;;;;;;;;;;9.00;90.80;;;;;;5074010;28;19912;-45
2021/12/18 12:54:32;;;;;;;;;;;9.00;90.80;;;;;;5085162;28;19930;-44
2021/12/18 12:57:17;;;;;;;;;;;9.00;90.80;;;;;;5073554;28;19904;-50
2021/12/18 12:59:44;;;;;;;;;;;8.90;90.90;;;;;;5082426;28;19919;-46
2021/12/18 13:02:12;;;;;;;;;;;8.90;90.90;;;;;;5087479;28;20315;-44
2021/12/18 13:04:38;;;;;;;;;;;8.80;90.90;;;;;;5072529;28;19915;-44
2021/12/18 13:07:09;;;;;;;;;;;8.80;91.10;;;;;;5070913;28;19924;-45
2021/12/18 13:09:45;;;;;;;;;;;8.70;91.10;;;;;;5072960;28;19963;-43
2021/12/18 13:12:12;;;;;;;;;;;8.70;91.20;;;;;;5090576;28;20270;-43
2021/12/18 13:14:41;;;;;;;;;;;8.70;91.20;;;;;;5090063;28;19908;-45
2021/12/18 13:17:20;;;;;;;;;;;8.60;91.30;;;;;;5091116;28;19907;-45
2021/12/18 13:20:04;;;;;;;;;;;8.70;91.40;;;;;;5082501;28;20297;-44
2021/12/18 13:22:33;;;;;;;;;;;8.60;91.50;;;;;;5087213;28;19965;-47
2021/12/18 13:25:03;;;;;;;;;;;8.60;91.40;;;;;;5079422;28;19920;-42
2021/12/18 13:27:30;;;;;;;;;;;8.60;91.50;;;;;;5088282;28;19973;-43
2021/12/18 13:30:15;;;;;;;;;;;8.50;91.60;;;;;;5083895;28;19908;-46
2021/12/18 13:32:51;;;;;;;;;;;8.60;91.60;;;;;;5087533;28;19919;-45
2021/12/18 13:35:18;;;;;;;;;;;8.60;91.70;;;;;;5083292;28;19991;-46
2021/12/18 13:37:55;;;;;;;;;;;8.60;91.60;;;;;;5055348;28;19923;-48
2021/12/18 13:40:22;;;;;;;;;;;8.50;91.70;;;;;;5063779;28;19911;-44
2021/12/18 13:43:09;;;;;;;;;;;8.50;91.70;;;;;;5080693;28;19999;-47
2021/12/18 13:45:47;;;;;;;;;;;8.60;91.80;;;;;;5083268;28;19957;-42
2021/12/18 13:48:14;;;;;;;;;;;8.50;91.80;;;;;;5076946;28;19918;-43
2021/12/18 13:50:41;;;;;;;;;;;8.50;91.80;;;;;;5081624;28;19942;-46
2021/12/18 13:53:11;;;;;;;;;;;8.50;91.80;;;;;;5085614;28;19911;-48
2021/12/18 13:55:58;;;;;;;;;;;8.50;91.90;;;;;;5086257;28;19977;-43
2021/12/18 13:58:28;;;;;;;;;;;8.50;91.90;;;;;;5071977;28;19909;-44
2021/12/18 14:00:57;;;;;;;;;;;8.50;92.00;;;;;;5081508;28;19919;-45
2021/12/18 14:03:37;;;;;;;;;;;8.60;92.00;;;;;;5080845;28;19930;-47
2021/12/18 14:06:11;;;;;;;;;;;8.60;92.10;;;;;;5064412;28;20337;-44
2021/12/18 14:08:39;;;;;;;;;;;8.60;92.10;;;;;;5085060;28;20328;-44
2021/12/18 14:11:07;;;;;;;;;;;8.60;92.00;;;;;;5065732;28;19922;-47
2021/12/18 14:13:51;;;;;;;;;;;8.60;92.10;;;;;;5088905;28;20321;-44
2021/12/18 14:16:19;;;;;;;;;;;8.60;92.10;;;;;;5054880;28;19909;-46
2021/12/18 14:18:57;;;;;;;;;;;8.50;92.00;;;;;;5086820;28;19998;-48
2021/12/18 14:21:38;;;;;;;;;;;8.60;92.00;;;;;;5059959;28;19908;-48
2021/12/18 14:24:04;;;;;;;;;;;8.60;92.10;;;;;;5079338;28;20415;-46
2021/12/18 14:26:31;;;;;;;;;;;8.50;92.10;;;;;;5056961;28;19988;-45
2021/12/18 14:29:19;;;;;;;;;;;8.60;92.10;;;;;;5079697;28;20237;-44
2021/12/18 14:31:46;;;;;;;;;;;8.60;92.10;;;;;;5085473;28;19916;-46
2021/12/18 14:34:19;;;;;;;;;;;8.60;92.10;;;;;;5079376;28;19935;-47
2021/12/18 14:36:48;;;;;;;;;;;8.50;92.00;;;;;;5078563;28;19908;-46
2021/12/18 14:39:22;;;;;;;;;;;8.50;92.00;;;;;;5082271;28;19916;-45
2021/12/18 14:41:52;;;;;;;;;;;8.60;92.00;;;;;;5082032;28;20006;-43
2021/12/18 14:44:19;;;;;;;;;;;8.50;92.00;;;;;;5076652;28;20022;-45
2021/12/18 14:46:46;;;;;;;;;;;8.50;92.00;;;;;;5066848;28;19974;-44
2021/12/18 14:49:13;;;;;;;;;;;8.50;92.00;;;;;;5079725;28;19908;-49
2021/12/18 14:51:43;;;;;;;;;;;8.50;92.00;;;;;;5068054;28;20402;-48
2021/12/18 14:54:10;;;;;;;;;;;8.50;92.00;;;;;;5082208;28;19912;-48
2021/12/18 14:56:37;;;;;;;;;;;8.40;91.90;;;;;;5080878;28;19952;-45
2021/12/18 14:59:15;;;;;;;;;;;8.40;91.80;;;;;;5088658;28;20261;-45
2021/12/18 15:01:42;;;;;;;;;;;8.40;91.70;;;;;;5065692;28;19908;-43
2021/12/18 15:04:17;;;;;;;;;;;8.30;92.00;;;;;;5069699;28;20268;-43
2021/12/18 15:06:45;;;;;;;;;;;8.30;91.90;;;;;;5059999;28;20391;-45
2021/12/18 15:09:13;;;;;;;;;;;8.20;91.80;;;;;;5083829;28;19908;-43
2021/12/18 15:11:57;;;;;;;;;;;8.20;91.90;;;;;;5071529;28;19991;-43
2021/12/18 15:14:34;;;;;;;;;;;8.10;91.80;;;;;;5080991;28;20314;-46
2021/12/18 15:16:59;;;;;;;;;;;8.20;91.90;;;;;;5083011;28;19939;-48
2021/12/18 15:19:42;;;;;;;;;;;8.10;92.00;;;;;;5078279;28;19958;-45
2021/12/18 15:22:09;;;;;;;;;;;8.10;92.00;;;;;;5089298;28;19908;-44
2021/12/18 15:24:35;;;;;;;;;;;8.10;92.20;;;;;;5078903;28;19919;-46
2021/12/18 15:27:02;;;;;;;;;;;8.20;92.20;;;;;;5051769;28;19914;-46